Time;durP1;ratioP1;P1;durP2;ratioP2;P2;SDS_P1;SDS_P2;PMS_P1;PMS_P2;Temp;Humidity;BMP_temperature;BMP_pressure;BME280_temperature;BME280_humidity;BME280_pressure;Samples;Min_cycle;Max_cycle;Signal;HPM_P1;HPM_P2
2022/08/29 00:00:58;;;;;;;1.73;0.80;;;26.70;50.50;;;;;;10449349;28;20145;-36
2022/08/29 00:05:59;;;;;;;2.45;0.80;;;26.40;50.30;;;;;;10442723;28;20178;-36
2022/08/29 00:11:01;;;;;;;2.50;1.13;;;26.40;50.30;;;;;;10444715;28;20466;-35
2022/08/29 00:16:05;;;;;;;2.58;1.20;;;26.40;50.30;;;;;;10442244;28;20049;-33
2022/08/29 00:21:07;;;;;;;2.25;0.90;;;26.40;50.30;;;;;;10440508;28;20489;-35
2022/08/29 00:26:09;;;;;;;1.48;0.88;;;26.30;50.30;;;;;;10446305;28;20048;-35
2022/08/29 00:31:12;;;;;;;1.23;0.80;;;26.30;50.30;;;;;;10443973;28;20498;-33
2022/08/29 00:36:14;;;;;;;1.60;0.88;;;26.30;50.30;;;;;;10438226;28;20874;-34
2022/08/29 00:41:16;;;;;;;1.10;0.80;;;26.20;50.30;;;;;;10448637;28;20132;-36
2022/08/29 00:46:42;;;;;;;1.98;1.05;;;26.20;50.40;;;;;;10437911;28;20065;-34
2022/08/29 00:51:46;;;;;;;3.78;0.90;;;26.20;50.40;;;;;;10444166;28;20130;-35
2022/08/29 00:56:49;;;;;;;2.20;1.20;;;26.10;50.40;;;;;;10450763;28;21805;-35
2022/08/29 01:01:52;;;;;;;1.33;0.85;;;26.10;50.30;;;;;;10451518;28;20049;-33
2022/08/29 01:06:54;;;;;;;1.77;1.00;;;26.10;50.40;;;;;;10438676;28;20094;-34
2022/08/29 01:17:21;;;;;;;2.85;1.00;;;26.10;50.50;;;;;;10449437;28;20037;-36
2022/08/29 01:22:36;;;;;;;1.33;0.90;;;26.00;50.40;;;;;;10445447;28;20049;-36
2022/08/29 01:27:44;;;;;;;1.83;1.27;;;25.70;50.30;;;;;;10446319;28;20165;-37
2022/08/29 01:32:46;;;;;;;1.98;1.10;;;25.90;50.50;;;;;;10450797;28;20072;-36
2022/08/29 01:37:47;;;;;;;2.47;1.25;;;25.90;50.40;;;;;;10453558;28;20108;-34
2022/08/29 01:42:51;;;;;;;1.52;1.00;;;25.90;50.50;;;;;;10461815;28;20509;-36
2022/08/29 01:47:52;;;;;;;2.40;1.27;;;25.90;50.50;;;;;;10443899;28;20527;-35
2022/08/29 01:52:55;;;;;;;1.77;1.08;;;25.80;50.40;;;;;;10451506;28;20110;-35
2022/08/29 01:57:59;;;;;;;1.83;1.15;;;25.80;50.50;;;;;;10439350;28;20055;-34
2022/08/29 02:03:01;;;;;;;2.30;1.17;;;25.90;50.60;;;;;;10452127;28;20057;-36
2022/08/29 02:08:04;;;;;;;2.25;1.17;;;25.80;50.60;;;;;;10443215;28;20050;-33
2022/08/29 02:13:07;;;;;;;2.25;1.20;;;25.70;50.50;;;;;;10439156;28;20138;-32
2022/08/29 02:18:09;;;;;;;1.67;1.27;;;25.70;50.60;;;;;;10455015;28;20513;-35
2022/08/29 02:23:11;;;;;;;2.22;1.05;;;25.70;50.50;;;;;;10448258;28;20478;-35
2022/08/29 02:28:17;;;;;;;2.85;1.30;;;25.70;50.60;;;;;;10436043;28;20049;-33
2022/08/29 02:33:20;;;;;;;2.72;1.50;;;25.70;50.60;;;;;;10448355;28;20052;-34
2022/08/29 02:38:21;;;;;;;1.50;0.90;;;25.60;50.60;;;;;;10449896;28;20041;-32
2022/08/29 02:43:25;;;;;;;0.95;0.85;;;25.60;50.50;;;;;;10447099;28;20080;-36
2022/08/29 02:48:27;;;;;;;3.63;1.20;;;25.60;50.50;;;;;;10449915;28;20051;-35
2022/08/29 02:53:30;;;;;;;3.63;1.33;;;25.50;50.50;;;;;;10452943;28;20080;-35
2022/08/29 02:58:34;;;;;;;1.08;0.80;;;25.50;50.50;;;;;;10442227;28;20499;-35
2022/08/29 03:03:36;;;;;;;2.22;0.90;;;25.50;50.50;;;;;;10441006;28;20378;-32
2022/08/29 03:08:38;;;;;;;3.42;1.30;;;25.40;50.50;;;;;;10457471;28;20049;-34
2022/08/29 03:13:41;;;;;;;1.88;1.08;;;25.50;50.50;;;;;;10441112;28;20111;-33
2022/08/29 03:18:43;;;;;;;1.23;0.80;;;25.40;50.50;;;;;;10451269;28;20069;-35
2022/08/29 03:23:45;;;;;;;1.95;0.85;;;25.40;50.50;;;;;;10446545;28;20132;-35
2022/08/29 03:28:48;;;;;;;1.38;1.00;;;25.40;50.60;;;;;;10437416;28;20133;-33
2022/08/29 03:33:50;;;;;;;1.10;0.90;;;25.40;50.60;;;;;;10448752;28;20072;-35
2022/08/29 03:38:52;;;;;;;1.40;0.98;;;25.30;50.60;;;;;;10444115;28;20075;-36
2022/08/29 03:43:57;;;;;;;1.80;1.20;;;25.40;50.50;;;;;;10454345;28;20056;-35
2022/08/29 03:48:59;;;;;;;2.08;0.90;;;25.30;50.50;;;;;;10447656;28;20092;-35
2022/08/29 03:54:01;;;;;;;4.15;1.13;;;25.30;50.60;;;;;;10445619;28;20048;-35
2022/08/29 03:59:04;;;;;;;2.15;1.20;;;25.20;50.50;;;;;;10444479;28;20049;-38
2022/08/29 04:04:06;;;;;;;1.75;1.30;;;25.20;50.50;;;;;;10451983;28;20076;-35
2022/08/29 04:09:08;;;;;;;1.77;1.10;;;25.20;50.50;;;;;;10442373;28;20037;-34
2022/08/29 04:14:12;;;;;;;2.58;1.60;;;25.20;50.70;;;;;;10443726;28;20635;-33
2022/08/29 04:19:14;;;;;;;2.28;1.25;;;25.20;50.70;;;;;;10443183;28;20080;-36
2022/08/29 04:24:17;;;;;;;1.52;1.25;;;25.20;50.70;;;;;;10448544;28;21370;-34
2022/08/29 04:29:20;;;;;;;1.73;1.10;;;25.20;50.70;;;;;;10441401;28;20053;-35
2022/08/29 04:34:22;;;;;;;2.33;1.30;;;25.10;50.60;;;;;;10439224;28;20055;-36
2022/08/29 04:39:23;;;;;;;1.85;1.40;;;25.10;50.80;;;;;;10437004;28;20397;-35
2022/08/29 04:44:27;;;;;;;3.55;1.35;;;25.00;50.80;;;;;;10444387;28;20045;-35
2022/08/29 04:49:29;;;;;;;2.65;1.70;;;25.00;50.70;;;;;;10433303;28;20567;-34
2022/08/29 04:54:30;;;;;;;2.40;1.40;;;25.00;50.70;;;;;;10435707;28;20044;-32
2022/08/29 04:59:34;;;;;;;2.58;1.60;;;25.00;50.80;;;;;;10433041;28;20132;-36
2022/08/29 05:04:35;;;;;;;2.80;1.73;;;25.00;50.80;;;;;;10435219;28;20085;-34
2022/08/29 05:09:37;;;;;;;;;;;25.00;50.70;;;;;;10430459;28;20045;-34
2022/08/29 05:14:40;;;;;;;3.80;1.60;;;24.90;50.70;;;;;;10448024;28;19960;-35
2022/08/29 05:19:42;;;;;;;1.48;1.35;;;25.70;51.30;;;;;;10437882;28;20049;-35
2022/08/29 05:24:45;;;;;;;1.70;1.27;;;24.90;50.60;;;;;;10436197;28;20052;-36
2022/08/29 05:29:50;;;;;;;4.25;1.48;;;24.70;50.40;;;;;;10438852;28;20087;-35
2022/08/29 05:34:51;;;;;;;2.33;1.30;;;24.60;50.80;;;;;;10433151;28;22066;-36
2022/08/29 05:39:54;;;;;;;2.25;1.60;;;24.60;50.80;;;;;;10433351;28;20107;-35
2022/08/29 05:44:58;;;;;;;2.25;1.40;;;24.50;50.70;;;;;;10425372;28;20053;-36
2022/08/29 05:50:00;;;;;;;4.20;1.75;;;24.60;51.30;;;;;;10429154;28;20464;-35
2022/08/29 05:55:02;;;;;;;4.57;2.50;;;24.70;51.10;;;;;;10434346;28;20156;-35
2022/08/29 06:00:07;;;;;;;8.65;3.53;;;24.70;51.00;;;;;;10444756;28;20099;-37
2022/08/29 06:05:10;;;;;;;13.50;4.50;;;24.80;51.10;;;;;;10448228;28;20053;-33
2022/08/29 06:10:12;;;;;;;12.82;6.05;;;24.90;50.80;;;;;;10450199;28;20050;-31
2022/08/29 06:15:15;;;;;;;;;;;24.90;50.80;;;;;;10433433;28;20053;-35
2022/08/29 06:20:17;;;;;;;5.05;2.88;;;24.70;50.50;;;;;;10433237;28;20379;-36
2022/08/29 06:25:19;;;;;;;5.05;1.90;;;25.00;50.80;;;;;;10439048;28;20509;-35
2022/08/29 06:30:22;;;;;;;6.45;1.85;;;25.00;51.00;;;;;;10431880;28;20098;-35
2022/08/29 06:35:24;;;;;;;5.70;1.70;;;25.30;51.10;;;;;;10437733;28;20048;-36
2022/08/29 06:40:26;;;;;;;5.50;1.50;;;25.70;51.30;;;;;;10441864;28;20076;-36
2022/08/29 06:45:29;;;;;;;2.25;1.15;;;25.20;50.80;;;;;;10456419;28;20673;-35
2022/08/29 06:50:31;;;;;;;3.08;1.55;;;25.10;50.60;;;;;;10449413;28;20068;-35
2022/08/29 06:55:33;;;;;;;;;;;25.20;50.50;;;;;;10464156;28;20076;-35
2022/08/29 07:00:39;;;;;;;2.47;1.13;;;25.10;50.40;;;;;;10430416;28;19925;-36
2022/08/29 07:05:41;;;;;;;2.63;1.20;;;25.10;50.30;;;;;;10437684;28;20130;-36
2022/08/29 07:10:44;;;;;;;2.40;1.30;;;25.40;50.40;;;;;;10443825;28;20052;-35
2022/08/29 07:15:48;;;;;;;2.88;1.17;;;25.20;50.20;;;;;;10443949;28;20429;-35
2022/08/29 07:20:50;;;;;;;4.25;1.30;;;25.10;50.80;;;;;;10444929;28;20073;-35
2022/08/29 07:25:52;;;;;;;4.65;1.90;;;25.20;50.20;;;;;;10435626;28;20048;-35
2022/08/29 07:30:55;;;;;;;3.38;1.30;;;25.20;50.10;;;;;;10444996;28;20131;-35
2022/08/29 07:35:57;;;;;;;3.10;1.50;;;25.10;50.00;;;;;;10447481;28;20083;-36
2022/08/29 07:41:00;;;;;;;3.92;2.00;;;25.20;49.90;;;;;;10447287;28;20103;-35
2022/08/29 07:46:07;;;;;;;2.33;1.42;;;25.20;49.80;;;;;;10461899;28;20481;-37
2022/08/29 07:51:11;;;;;;;3.92;2.17;;;25.20;49.90;;;;;;10438547;28;20045;-35
2022/08/29 07:56:16;;;;;;;4.35;1.88;;;25.20;49.60;;;;;;10432865;28;20515;-35
2022/08/29 08:01:19;;;;;;;2.92;1.40;;;25.20;49.60;;;;;;10442184;28;20049;-37
2022/08/29 08:06:23;;;;;;;4.90;1.50;;;25.30;49.50;;;;;;10437824;28;20080;-37
2022/08/29 08:11:26;;;;;;;4.97;1.58;;;25.20;49.40;;;;;;10441009;28;20045;-35
2022/08/29 08:16:31;;;;;;;2.03;1.02;;;25.20;49.30;;;;;;10433014;28;20053;-35
2022/08/29 08:21:33;;;;;;;3.65;1.63;;;25.30;50.00;;;;;;10442970;28;20053;-35
2022/08/29 08:26:35;;;;;;;3.53;1.42;;;25.20;49.30;;;;;;10446975;28;20133;-36
2022/08/29 08:31:42;;;;;;;4.05;2.05;;;25.30;49.20;;;;;;10443617;28;20097;-34
2022/08/29 08:36:45;;;;;;;3.08;1.45;;;25.30;49.10;;;;;;10441225;28;20586;-35
2022/08/29 08:41:53;;;;;;;2.58;1.23;;;25.30;49.00;;;;;;10444270;28;20053;-37
2022/08/29 08:46:59;;;;;;;4.90;1.98;;;25.40;49.60;;;;;;10442720;28;20084;-36
2022/08/29 08:52:06;;;;;;;4.40;1.80;;;25.40;49.00;;;;;;10448765;28;20486;-35
2022/08/29 08:57:10;;;;;;;3.25;1.60;;;25.30;48.90;;;;;;10436446;28;20548;-35
2022/08/29 09:02:34;;;;;;;5.05;1.73;;;25.40;49.50;;;;;;10434906;28;20056;-32
2022/08/29 09:07:50;;;;;;;2.80;1.77;;;25.40;48.90;;;;;;10450429;28;20110;-35
2022/08/29 09:13:00;;;;;;;3.30;1.40;;;25.40;48.70;;;;;;10443667;28;20081;-35
2022/08/29 09:18:07;;;;;;;2.95;1.95;;;25.40;48.60;;;;;;10437720;28;20067;-35
2022/08/29 09:23:24;;;;;;;3.63;1.75;;;25.40;48.50;;;;;;10436145;28;20060;-35
2022/08/29 09:28:26;;;;;;;3.03;1.80;;;25.40;48.60;;;;;;10445536;28;20065;-35
2022/08/29 09:33:40;;;;;;;3.92;1.90;;;25.20;49.00;;;;;;10465000;28;20075;-34
2022/08/29 09:38:42;;;;;;;4.50;2.03;;;25.40;48.40;;;;;;10444633;28;20073;-34
2022/08/29 09:43:48;;;;;;;2.88;1.88;;;25.40;48.30;;;;;;10475473;28;20045;-35
2022/08/29 09:48:54;;;;;;;5.30;1.77;;;25.40;48.30;;;;;;10447323;28;20076;-35
2022/08/29 09:54:14;;;;;;;3.88;2.08;;;25.40;48.20;;;;;;10427248;28;20114;-34
2022/08/29 09:59:22;;;;;;;2.08;1.50;;;25.50;48.10;;;;;;10429404;28;20076;-35
2022/08/29 10:04:40;;;;;;;3.55;1.83;;;25.40;48.10;;;;;;10443783;28;20072;-35
2022/08/29 10:09:53;;;;;;;5.13;1.70;;;25.50;48.10;;;;;;10441781;28;20132;-35
2022/08/29 10:15:00;;;;;;;8.15;1.83;;;25.50;47.90;;;;;;10450762;28;20091;-36
2022/08/29 10:20:07;;;;;;;3.03;1.75;;;25.70;48.10;;;;;;10460439;28;20044;-38
2022/08/29 10:25:15;;;;;;;2.33;1.52;;;25.50;47.90;;;;;;10450804;28;20057;-35
2022/08/29 10:30:20;;;;;;;3.35;1.50;;;25.60;47.90;;;;;;10460539;28;21404;-36
2022/08/29 10:35:29;;;;;;;5.05;1.60;;;25.60;47.90;;;;;;10443944;28;20045;-35
2022/08/29 10:40:40;;;;;;;2.85;1.75;;;25.70;47.80;;;;;;10449672;28;20531;-34
2022/08/29 10:45:56;;;;;;;3.80;2.15;;;25.70;48.40;;;;;;10449658;28;20139;-36
2022/08/29 10:51:13;;;;;;;2.75;1.50;;;25.80;47.70;;;;;;10445649;28;20698;-35
2022/08/29 10:56:22;;;;;;;4.63;2.05;;;25.80;47.60;;;;;;10450924;28;20057;-36
2022/08/29 11:01:30;;;;;;;2.72;1.63;;;25.70;47.30;;;;;;10424746;28;20111;-36
2022/08/29 11:06:37;;;;;;;3.33;1.77;;;25.90;47.30;;;;;;10452734;28;20049;-36
2022/08/29 11:11:46;;;;;;;5.18;2.08;;;25.90;47.10;;;;;;10446581;28;20618;-35
2022/08/29 11:16:50;;;;;;;2.58;1.70;;;25.90;47.20;;;;;;10445421;28;20073;-35
2022/08/29 11:21:56;;;;;;;3.65;1.73;;;25.90;47.40;;;;;;10442881;28;20101;-35
2022/08/29 11:27:05;;;;;;;2.90;1.55;;;26.00;47.20;;;;;;10435356;28;20536;-35
2022/08/29 11:32:11;;;;;;;4.38;2.35;;;26.20;47.30;;;;;;10448209;28;20048;-34
2022/08/29 11:37:41;;;;;;;2.22;1.60;;;25.80;47.20;;;;;;10454149;28;20072;-35
2022/08/29 11:42:46;;;;;;;3.50;1.60;;;25.90;47.40;;;;;;10429314;28;20063;-35
2022/08/29 11:48:00;;;;;;;2.83;1.80;;;26.10;47.20;;;;;;10459726;28;20065;-34
2022/08/29 11:53:11;;;;;;;3.17;1.60;;;26.10;47.10;;;;;;10449661;28;20053;-35
2022/08/29 11:58:42;;;;;;;2.00;1.45;;;26.10;47.00;;;;;;10442958;28;20073;-36
2022/08/29 12:03:45;;;;;;;2.58;1.30;;;26.10;46.90;;;;;;10437301;28;20049;-35
2022/08/29 12:08:56;;;;;;;3.15;1.65;;;26.20;46.90;;;;;;10436579;28;20111;-35
2022/08/29 12:14:00;;;;;;;2.78;1.60;;;26.30;47.00;;;;;;10443656;28;20527;-34
2022/08/29 12:19:01;;;;;;;2.10;1.20;;;26.30;47.00;;;;;;10431427;28;20491;-35
2022/08/29 12:24:07;;;;;;;2.90;1.48;;;26.30;46.90;;;;;;10454708;28;20557;-36
2022/08/29 12:29:18;;;;;;;1.75;1.20;;;26.40;47.10;;;;;;10457795;28;20088;-36
2022/08/29 12:34:45;;;;;;;4.72;1.83;;;26.50;46.80;;;;;;10451892;28;20049;-36
2022/08/29 12:40:03;;;;;;;7.53;1.77;;;26.60;46.70;;;;;;10445339;28;20060;-37
2022/08/29 12:45:11;;;;;;;2.95;1.65;;;26.70;47.40;;;;;;10450049;28;20068;-41
2022/08/29 12:50:18;;;;;;;2.70;1.65;;;26.50;47.30;;;;;;10472119;28;20077;-39
2022/08/29 12:55:25;;;;;;;2.90;1.35;;;26.70;47.30;;;;;;10453749;28;20437;-33
2022/08/29 13:00:29;;;;;;;2.60;1.50;;;26.70;47.20;;;;;;10444974;28;20044;-35
2022/08/29 13:05:33;;;;;;;3.80;1.48;;;26.80;47.20;;;;;;10444354;28;20049;-34
2022/08/29 13:10:37;;;;;;;4.35;2.00;;;27.00;47.10;;;;;;10445942;28;20049;-34
2022/08/29 13:15:40;;;;;;;2.30;1.42;;;27.20;46.80;;;;;;10442133;28;20140;-33
2022/08/29 13:20:48;;;;;;;2.58;1.60;;;27.40;46.60;;;;;;10452596;28;20129;-34
2022/08/29 13:25:56;;;;;;;3.83;1.70;;;27.60;46.10;;;;;;10446812;28;20053;-34
2022/08/29 13:31:29;;;;;;;4.35;1.80;;;27.50;46.30;;;;;;10427174;28;20037;-34
2022/08/29 13:36:37;;;;;;;2.97;1.35;;;27.90;45.70;;;;;;10451967;28;20045;-35
2022/08/29 13:41:41;;;;;;;2.72;1.70;;;27.70;46.00;;;;;;10442880;28;20119;-33
2022/08/29 13:46:45;;;;;;;2.55;1.38;;;28.10;45.70;;;;;;10435776;28;20057;-34
2022/08/29 13:51:47;;;;;;;6.13;1.85;;;27.60;46.50;;;;;;10423420;28;20041;-38
2022/08/29 13:56:56;;;;;;;3.20;1.10;;;27.60;46.90;;;;;;10441815;28;20540;-35
2022/08/29 14:02:00;;;;;;;3.22;1.90;;;27.60;46.50;;;;;;10445060;28;20099;-33
2022/08/29 14:07:03;;;;;;;7.38;2.10;;;27.30;47.40;;;;;;10430201;28;20053;-34
2022/08/29 14:12:07;;;;;;;3.50;2.10;;;27.30;48.10;;;;;;10440949;28;20096;-34
2022/08/29 14:17:10;;;;;;;5.35;1.88;;;27.20;47.90;;;;;;10449528;28;20549;-35
2022/08/29 14:22:12;;;;;;;3.55;1.60;;;27.40;47.40;;;;;;10439865;28;20049;-35
2022/08/29 14:27:15;;;;;;;5.25;1.88;;;27.40;47.10;;;;;;10435681;28;20148;-40
2022/08/29 14:32:17;;;;;;;3.40;1.50;;;27.60;48.60;;;;;;10456241;28;20048;-34
2022/08/29 14:37:19;;;;;;;3.78;1.75;;;27.30;47.70;;;;;;10453044;28;20076;-34
2022/08/29 14:42:22;;;;;;;4.80;1.85;;;27.40;47.30;;;;;;10438801;28;20111;-34
2022/08/29 14:47:24;;;;;;;3.58;1.73;;;27.50;47.90;;;;;;10441203;28;20080;-35
2022/08/29 14:52:25;;;;;;;2.55;1.50;;;27.70;47.00;;;;;;10437337;28;20693;-35
2022/08/29 14:57:28;;;;;;;2.60;1.63;;;27.80;46.90;;;;;;10443796;28;20076;-35
2022/08/29 15:02:30;;;;;;;2.80;1.42;;;27.80;46.90;;;;;;10430690;28;20486;-34
2022/08/29 15:07:34;;;;;;;3.97;1.60;;;27.50;47.30;;;;;;10438800;28;20432;-31
2022/08/29 15:12:37;;;;;;;4.45;1.48;;;27.50;47.30;;;;;;10434309;28;20160;-34
2022/08/29 15:17:42;;;;;;;3.08;1.55;;;27.70;47.30;;;;;;10430782;28;20091;-34
2022/08/29 15:22:44;;;;;;;3.03;1.65;;;27.80;47.00;;;;;;10436231;28;20057;-35
2022/08/29 15:27:47;;;;;;;4.68;1.83;;;27.80;47.10;;;;;;10437414;28;20489;-35
2022/08/29 15:32:49;;;;;;;2.08;1.35;;;27.80;47.00;;;;;;10437749;28;20126;-35
2022/08/29 15:37:53;;;;;;;2.10;1.60;;;27.70;47.60;;;;;;10435328;28;20139;-34
2022/08/29 15:42:56;;;;;;;2.15;1.48;;;28.00;47.10;;;;;;10434292;28;20049;-34
2022/08/29 15:47:59;;;;;;;5.20;1.90;;;28.00;47.40;;;;;;10435277;28;20084;-35
2022/08/29 15:53:01;;;;;;;3.45;1.45;;;28.10;47.40;;;;;;10425991;28;20102;-34
2022/08/29 15:58:04;;;;;;;3.40;1.30;;;28.30;46.70;;;;;;10435033;28;20085;-33
2022/08/29 16:03:06;;;;;;;2.13;1.13;;;28.20;46.80;;;;;;10433863;28;20448;-37
2022/08/29 16:08:09;;;;;;;2.40;1.35;;;28.10;46.90;;;;;;10433659;28;20646;-35
2022/08/29 16:13:13;;;;;;;3.75;1.50;;;28.20;46.90;;;;;;10435933;28;20136;-35
2022/08/29 16:18:15;;;;;;;3.80;1.70;;;28.30;47.10;;;;;;10443480;28;20102;-34
2022/08/29 16:23:16;;;;;;;6.75;1.65;;;28.30;47.10;;;;;;10453557;28;20140;-34
2022/08/29 16:28:20;;;;;;;4.93;1.80;;;28.60;47.00;;;;;;10448651;28;20147;-34
2022/08/29 16:33:22;;;;;;;3.38;1.70;;;28.60;47.10;;;;;;10444966;28;20049;-34
2022/08/29 16:38:24;;;;;;;5.00;1.55;;;28.80;47.80;;;;;;10445544;28;20095;-34
2022/08/29 16:43:27;;;;;;;6.15;1.52;;;28.60;47.00;;;;;;10439666;28;20076;-31
2022/08/29 16:48:29;;;;;;;3.03;1.25;;;28.70;47.30;;;;;;10442432;28;20160;-34
2022/08/29 16:53:31;;;;;;;6.10;2.20;;;28.60;47.10;;;;;;10442611;28;20215;-32
2022/08/29 17:03:55;;;;;;;6.63;1.80;;;28.30;47.90;;;;;;10438477;28;20045;-30
2022/08/29 17:19:00;;;;;;;10.10;2.25;;;28.50;47.90;;;;;;10438549;28;21116;-35
2022/08/29 17:24:05;;;;;;;6.05;2.47;;;28.50;48.00;;;;;;10435986;28;20136;-35
2022/08/29 17:29:09;;;;;;;7.15;2.08;;;28.60;48.10;;;;;;10443130;28;20416;-35
2022/08/29 17:34:11;;;;;;;13.73;2.28;;;28.60;48.10;;;;;;10442138;28;20049;-35
2022/08/29 17:39:13;;;;;;;15.20;2.20;;;28.70;48.20;;;;;;10442925;28;20533;-34
2022/08/29 17:44:16;;;;;;;10.10;2.10;;;28.70;48.30;;;;;;10427854;28;20117;-35
2022/08/29 17:49:18;;;;;;;3.42;1.92;;;28.70;48.40;;;;;;10427387;28;20054;-36
2022/08/29 17:54:21;;;;;;;6.43;2.10;;;28.70;48.30;;;;;;10446072;28;20068;-35
2022/08/29 17:59:27;;;;;;;8.52;1.98;;;28.70;48.40;;;;;;10453761;28;20095;-35
2022/08/29 18:04:28;;;;;;;7.90;1.73;;;28.70;48.60;;;;;;10448571;28;20048;-34
2022/08/29 18:09:31;;;;;;;9.88;1.73;;;28.70;48.70;;;;;;10443173;28;20477;-36
2022/08/29 18:14:34;;;;;;;4.25;1.55;;;28.70;48.80;;;;;;10446018;28;20053;-35
2022/08/29 18:19:36;;;;;;;4.45;1.60;;;28.70;48.90;;;;;;10440253;28;20053;-35
2022/08/29 18:24:37;;;;;;;3.28;1.50;;;28.70;49.00;;;;;;10433321;28;20049;-35
2022/08/29 18:29:40;;;;;;;5.55;1.52;;;28.70;49.00;;;;;;10448610;28;20075;-32
2022/08/29 18:34:42;;;;;;;5.53;1.30;;;28.60;49.20;;;;;;10449493;28;20091;-35
2022/08/29 18:39:44;;;;;;;7.20;2.17;;;28.60;49.30;;;;;;10446132;28;20518;-35
2022/08/29 18:44:47;;;;;;;5.78;1.40;;;28.50;49.40;;;;;;10424487;28;20526;-35
2022/08/29 18:55:09;;;;;;;5.15;1.90;;;28.40;49.50;;;;;;10427461;28;20050;-35
2022/08/29 19:00:14;;;;;;;12.95;1.38;;;28.40;49.70;;;;;;10433031;28;20053;-34
2022/08/29 19:05:17;;;;;;;8.20;1.95;;;28.40;49.80;;;;;;10433771;28;20134;-35
2022/08/29 19:10:20;;;;;;;6.65;1.45;;;28.30;49.90;;;;;;10443200;28;20095;-36
2022/08/29 19:15:25;;;;;;;6.10;1.52;;;28.30;49.90;;;;;;10437014;28;20087;-32
2022/08/29 19:25:48;;;;;;;8.00;2.10;;;28.20;50.00;;;;;;10435539;28;20619;-34
2022/08/29 19:30:52;;;;;;;17.38;2.60;;;28.00;49.90;;;;;;10438287;28;20037;-35
2022/08/29 19:35:55;;;;;;;10.55;2.25;;;28.00;49.90;;;;;;10421635;28;20679;-35
2022/08/29 19:40:57;;;;;;;9.65;2.10;;;28.00;50.10;;;;;;10436112;28;20133;-35
2022/08/29 19:46:02;;;;;;;8.02;1.92;;;28.00;50.10;;;;;;10422434;28;20247;-35
2022/08/29 19:51:08;;;;;;;9.77;2.20;;;27.90;50.10;;;;;;10417854;28;20621;-34
2022/08/29 19:56:11;;;;;;;4.88;1.90;;;27.90;50.10;;;;;;10422374;28;20050;-35
2022/08/29 20:01:15;;;;;;;4.78;1.65;;;27.90;50.20;;;;;;10422371;28;20053;-35
2022/08/29 20:06:17;;;;;;;8.32;1.55;;;27.80;50.20;;;;;;10443582;28;20080;-36
2022/08/29 20:11:22;;;;;;;5.63;1.70;;;27.80;50.20;;;;;;10431925;28;20056;-35
2022/08/29 20:16:28;;;;;;;4.57;2.30;;;27.80;50.20;;;;;;10432782;28;20065;-36
2022/08/29 20:21:31;;;;;;;7.80;2.13;;;27.70;50.30;;;;;;10444800;28;20099;-36
2022/08/29 20:26:35;;;;;;;6.30;1.83;;;27.70;50.30;;;;;;10444701;28;20553;-36
2022/08/29 20:31:38;;;;;;;4.32;1.52;;;27.70;50.30;;;;;;10457110;28;20080;-35
2022/08/29 20:42:00;;;;;;;4.75;1.30;;;27.60;50.40;;;;;;10448086;28;20429;-35
2022/08/29 20:47:05;;;;;;;4.38;1.25;;;27.50;50.50;;;;;;10432471;28;20056;-36
2022/08/29 20:52:07;;;;;;;2.90;1.48;;;27.50;50.60;;;;;;10448575;28;20212;-36
2022/08/29 20:57:09;;;;;;;5.70;1.42;;;27.50;50.70;;;;;;10442327;28;20084;-37
2022/08/29 21:02:13;;;;;;;4.00;1.50;;;27.40;50.70;;;;;;10455415;28;20043;-35
2022/08/29 21:07:15;;;;;;;2.60;1.33;;;27.40;51.40;;;;;;10446640;28;20049;-38
2022/08/29 21:12:19;;;;;;;5.03;1.55;;;27.40;50.80;;;;;;10455214;28;20609;-34
2022/08/29 21:17:22;;;;;;;4.13;1.83;;;27.30;50.90;;;;;;10444960;28;20647;-43
2022/08/29 21:22:24;;;;;;;3.65;1.67;;;27.30;50.90;;;;;;10452393;28;20099;-35
2022/08/29 21:27:26;;;;;;;4.53;1.73;;;27.30;51.00;;;;;;10459683;28;20143;-33
2022/08/29 21:32:29;;;;;;;4.55;1.75;;;27.20;51.00;;;;;;10459067;28;20502;-35
2022/08/29 21:37:31;;;;;;;5.35;1.67;;;27.30;51.10;;;;;;10449483;28;20124;-36
2022/08/29 21:42:33;;;;;;;2.90;1.35;;;27.20;51.10;;;;;;10448111;28;20049;-33
2022/08/29 21:47:36;;;;;;;3.17;1.98;;;27.20;51.20;;;;;;10432244;28;20053;-36
2022/08/29 21:52:38;;;;;;;5.68;1.90;;;27.20;51.20;;;;;;10439702;28;20136;-36
2022/08/29 21:57:53;;;;;;;4.60;1.70;;;27.10;51.20;;;;;;10445995;28;20160;-34
2022/08/29 22:02:57;;;;;;;2.58;1.50;;;27.10;51.40;;;;;;10448126;28;20049;-34
2022/08/29 22:07:59;;;;;;;3.65;1.95;;;27.10;51.40;;;;;;10442550;28;20537;-34
2022/08/29 22:13:02;;;;;;;5.43;1.50;;;27.00;51.50;;;;;;10440711;28;20087;-36
2022/08/29 22:18:07;;;;;;;3.20;1.30;;;27.00;51.50;;;;;;10445019;28;20045;-35
2022/08/29 22:23:10;;;;;;;2.70;1.30;;;27.00;51.60;;;;;;10449403;28;20041;-34
2022/08/29 22:28:12;;;;;;;3.38;1.52;;;26.90;51.60;;;;;;10440742;28;20107;-35
2022/08/29 22:33:15;;;;;;;3.72;1.70;;;26.90;51.70;;;;;;10451609;28;20130;-33
2022/08/29 22:38:17;;;;;;;3.33;1.48;;;26.90;51.70;;;;;;10438251;28;20053;-35
2022/08/29 22:43:20;;;;;;;3.10;1.85;;;26.80;51.80;;;;;;10436024;28;20051;-35
2022/08/29 22:48:23;;;;;;;3.67;2.10;;;26.80;51.90;;;;;;10456210;28;20053;-35
2022/08/29 22:53:25;;;;;;;7.93;1.50;;;26.80;51.90;;;;;;10443074;28;20068;-34
2022/08/29 22:58:27;;;;;;;1.67;1.10;;;26.70;52.00;;;;;;10435496;28;20448;-33
2022/08/29 23:03:31;;;;;;;3.47;1.13;;;26.70;52.10;;;;;;10442553;28;20060;-34
2022/08/29 23:08:32;;;;;;;2.85;1.20;;;26.70;52.20;;;;;;10433424;28;20144;-34
2022/08/29 23:13:34;;;;;;;3.85;1.33;;;26.60;52.20;;;;;;10449295;28;20107;-39
2022/08/29 23:18:38;;;;;;;3.13;1.20;;;26.60;52.30;;;;;;10450567;28;20053;-35
2022/08/29 23:23:40;;;;;;;2.53;1.10;;;26.60;52.30;;;;;;10454203;28;20135;-35
2022/08/29 23:28:41;;;;;;;2.50;1.40;;;26.50;52.30;;;;;;10427287;28;20210;-36
2022/08/29 23:33:45;;;;;;;3.05;1.30;;;26.50;52.40;;;;;;10436251;28;20129;-35
2022/08/29 23:38:47;;;;;;;2.15;1.30;;;26.50;52.50;;;;;;10431828;28;20509;-35
2022/08/29 23:43:50;;;;;;;3.70;1.65;;;26.50;52.60;;;;;;10446861;28;20072;-35
2022/08/29 23:48:54;;;;;;;4.18;2.03;;;26.50;52.60;;;;;;10436464;28;20111;-34
2022/08/29 23:53:56;;;;;;;4.25;1.13;;;26.40;52.60;;;;;;10443022;28;20037;-36
2022/08/29 23:58:58;;;;;;;3.03;1.40;;;26.40;52.70;;;;;;10449821;28;20059;-35
